sensor_id;sensor_type;location;lat;lon;timestamp;pressure;altitude;pressure_sealevel;temperature;humidity
38620;BME280;24376;51.986;4.662;2022-10-22T00:00:59;108141.06;;;13.31;66.29
38620;BME280;24376;51.986;4.662;2022-10-22T00:03:24;108140.66;;;13.28;66.28
38620;BME280;24376;51.986;4.662;2022-10-22T00:05:49;108112.03;;;13.24;66.27
38620;BME280;24376;51.986;4.662;2022-10-22T00:08:14;107871.56;;;13.25;66.44
38620;BME280;24376;51.986;4.662;2022-10-22T00:10:40;107949.09;;;13.27;66.33
38620;BME280;24376;51.986;4.662;2022-10-22T00:13:05;107955.84;;;13.25;66.37
38620;BME280;24376;51.986;4.662;2022-10-22T00:15:30;108132.22;;;13.30;66.19
38620;BME280;24376;51.986;4.662;2022-10-22T00:17:56;108169.16;;;13.38;66.16
38620;BME280;24376;51.986;4.662;2022-10-22T00:20:21;108182.50;;;13.39;66.14
38620;BME280;24376;51.986;4.662;2022-10-22T00:22:46;108113.63;;;13.36;66.17
38620;BME280;24376;51.986;4.662;2022-10-22T00:25:12;108269.69;;;13.41;65.99
38620;BME280;24376;51.986;4.662;2022-10-22T00:27:37;108334.81;;;13.42;65.99
38620;BME280;24376;51.986;4.662;2022-10-22T00:30:02;108330.94;;;13.45;65.97
38620;BME280;24376;51.986;4.662;2022-10-22T00:32:27;108390.25;;;13.49;65.95
38620;BME280;24376;51.986;4.662;2022-10-22T00:34:52;108389.28;;;13.48;65.94
38620;BME280;24376;51.986;4.662;2022-10-22T00:37:18;108419.53;;;13.45;65.92
38620;BME280;24376;51.986;4.662;2022-10-22T00:39:43;108452.34;;;13.47;65.91
38620;BME280;24376;51.986;4.662;2022-10-22T00:42:12;108464.69;;;13.41;65.91
38620;BME280;24376;51.986;4.662;2022-10-22T00:45:03;108484.84;;;13.40;65.89
38620;BME280;24376;51.986;4.662;2022-10-22T00:47:32;108467.09;;;13.39;65.88
38620;BME280;24376;51.986;4.662;2022-10-22T00:49:59;108524.56;;;13.42;65.86
38620;BME280;24376;51.986;4.662;2022-10-22T00:52:24;108519.38;;;13.49;65.87
38620;BME280;24376;51.986;4.662;2022-10-22T00:54:50;108530.13;;;13.50;65.87
38620;BME280;24376;51.986;4.662;2022-10-22T00:57:16;108546.16;;;13.52;65.85
38620;BME280;24376;51.986;4.662;2022-10-22T00:59:42;108472.88;;;13.49;65.87
38620;BME280;24376;51.986;4.662;2022-10-22T01:02:07;108487.75;;;13.49;65.86
38620;BME280;24376;51.986;4.662;2022-10-22T01:04:32;108550.06;;;13.48;65.83
38620;BME280;24376;51.986;4.662;2022-10-22T01:06:57;108495.34;;;13.53;65.85
38620;BME280;24376;51.986;4.662;2022-10-22T01:09:41;108510.97;;;13.51;65.85
38620;BME280;24376;51.986;4.662;2022-10-22T01:17:41;108424.69;;;13.50;65.86
38620;BME280;24376;51.986;4.662;2022-10-22T01:20:25;108410.94;;;13.46;65.86
38620;BME280;24376;51.986;4.662;2022-10-22T01:25:57;108380.88;;;13.38;65.85
38620;BME280;24376;51.986;4.662;2022-10-22T01:30:51;108331.25;;;13.41;65.87
38620;BME280;24376;51.986;4.662;2022-10-22T01:33:18;108332.38;;;13.43;65.86
38620;BME280;24376;51.986;4.662;2022-10-22T01:35:45;108338.41;;;13.42;65.87
38620;BME280;24376;51.986;4.662;2022-10-22T01:38:11;108374.03;;;13.46;65.85
38620;BME280;24376;51.986;4.662;2022-10-22T01:40:38;108255.97;;;13.43;65.89
38620;BME280;24376;51.986;4.662;2022-10-22T01:43:04;108272.84;;;13.38;65.87
38620;BME280;24376;51.986;4.662;2022-10-22T01:45:33;108258.53;;;13.36;65.88
38620;BME280;24376;51.986;4.662;2022-10-22T01:48:19;108265.50;;;13.36;65.87
38620;BME280;24376;51.986;4.662;2022-10-22T01:53:20;108243.75;;;13.24;65.86
38620;BME280;24376;51.986;4.662;2022-10-22T01:56:00;108211.19;;;13.23;65.87
38620;BME280;24376;51.986;4.662;2022-10-22T02:01:05;108203.56;;;13.19;65.88
38620;BME280;24376;51.986;4.662;2022-10-22T02:03:47;108209.41;;;13.17;65.88
38620;BME280;24376;51.986;4.662;2022-10-22T02:06:17;108227.94;;;13.24;65.87
38620;BME280;24376;51.986;4.662;2022-10-22T02:08:43;108208.00;;;13.26;65.86
38620;BME280;24376;51.986;4.662;2022-10-22T02:11:10;108178.16;;;13.20;65.88
38620;BME280;24376;51.986;4.662;2022-10-22T02:13:37;108158.59;;;13.18;65.89
38620;BME280;24376;51.986;4.662;2022-10-22T02:16:05;108123.41;;;13.17;65.88
38620;BME280;24376;51.986;4.662;2022-10-22T02:18:31;108092.00;;;13.19;65.91
38620;BME280;24376;51.986;4.662;2022-10-22T02:20:58;108061.09;;;13.11;65.91
38620;BME280;24376;51.986;4.662;2022-10-22T02:23:24;108115.66;;;13.12;65.89
38620;BME280;24376;51.986;4.662;2022-10-22T02:25:50;108068.44;;;13.13;65.91
38620;BME280;24376;51.986;4.662;2022-10-22T02:31:05;108006.91;;;13.13;65.93
38620;BME280;24376;51.986;4.662;2022-10-22T02:33:33;108092.19;;;13.20;65.89
38620;BME280;24376;51.986;4.662;2022-10-22T02:36:00;108027.09;;;13.19;65.92
38620;BME280;24376;51.986;4.662;2022-10-22T02:38:26;108078.31;;;13.21;65.90
38620;BME280;24376;51.986;4.662;2022-10-22T02:40:52;108066.06;;;13.22;65.91
38620;BME280;24376;51.986;4.662;2022-10-22T02:43:18;108042.72;;;13.18;65.93
38620;BME280;24376;51.986;4.662;2022-10-22T02:45:43;108070.63;;;13.23;65.90
38620;BME280;24376;51.986;4.662;2022-10-22T02:48:09;108049.75;;;13.24;65.90
38620;BME280;24376;51.986;4.662;2022-10-22T02:50:34;108056.75;;;13.31;65.91
38620;BME280;24376;51.986;4.662;2022-10-22T02:52:59;108035.31;;;13.28;65.92
38620;BME280;24376;51.986;4.662;2022-10-22T02:55:24;108026.22;;;13.26;65.93
38620;BME280;24376;51.986;4.662;2022-10-22T02:57:49;108029.47;;;13.30;65.92
38620;BME280;24376;51.986;4.662;2022-10-22T03:00:15;108007.91;;;13.40;65.94
38620;BME280;24376;51.986;4.662;2022-10-22T03:02:40;107925.44;;;13.34;65.97
38620;BME280;24376;51.986;4.662;2022-10-22T03:05:05;107931.09;;;13.37;65.97
38620;BME280;24376;51.986;4.662;2022-10-22T03:07:30;107868.41;;;13.35;66.00
38620;BME280;24376;51.986;4.662;2022-10-22T03:09:56;107842.81;;;13.34;66.02
38620;BME280;24376;51.986;4.662;2022-10-22T03:12:21;107814.63;;;13.40;66.06
38620;BME280;24376;51.986;4.662;2022-10-22T03:14:46;107802.56;;;13.42;66.06
38620;BME280;24376;51.986;4.662;2022-10-22T03:17:11;107809.34;;;13.47;66.06
38620;BME280;24376;51.986;4.662;2022-10-22T03:19:36;107744.78;;;13.50;66.11
38620;BME280;24376;51.986;4.662;2022-10-22T03:22:03;107714.09;;;13.51;66.16
38620;BME280;24376;51.986;4.662;2022-10-22T03:24:33;107736.69;;;13.56;66.16
38620;BME280;24376;51.986;4.662;2022-10-22T03:26:59;107665.53;;;13.56;66.21
38620;BME280;24376;51.986;4.662;2022-10-22T03:29:25;107626.22;;;13.57;66.27
38620;BME280;24376;51.986;4.662;2022-10-22T03:31:50;107561.66;;;13.54;66.31
38620;BME280;24376;51.986;4.662;2022-10-22T03:34:16;107509.91;;;13.54;66.38
38620;BME280;24376;51.986;4.662;2022-10-22T03:36:41;107471.28;;;13.62;66.47
38620;BME280;24376;51.986;4.662;2022-10-22T03:39:06;107444.38;;;13.65;66.54
38620;BME280;24376;51.986;4.662;2022-10-22T03:41:31;107372.81;;;13.69;66.67
38620;BME280;24376;51.986;4.662;2022-10-22T03:43:58;107348.13;;;13.68;66.80
38620;BME280;24376;51.986;4.662;2022-10-22T03:46:24;107287.13;;;13.72;66.97
38620;BME280;24376;51.986;4.662;2022-10-22T03:48:49;107281.28;;;13.75;67.04
38620;BME280;24376;51.986;4.662;2022-10-22T03:51:14;107223.69;;;13.71;67.25
38620;BME280;24376;51.986;4.662;2022-10-22T03:53:39;107196.41;;;13.70;67.41
38620;BME280;24376;51.986;4.662;2022-10-22T03:56:08;107139.69;;;13.74;67.67
38620;BME280;24376;51.986;4.662;2022-10-22T03:58:34;107095.47;;;13.71;67.87
38620;BME280;24376;51.986;4.662;2022-10-22T04:01:03;107068.50;;;13.74;67.98
38620;BME280;24376;51.986;4.662;2022-10-22T04:03:28;107030.28;;;13.77;68.20
38620;BME280;24376;51.986;4.662;2022-10-22T04:05:53;107019.16;;;13.80;68.33
38620;BME280;24376;51.986;4.662;2022-10-22T04:08:19;106998.38;;;13.83;68.59
38620;BME280;24376;51.986;4.662;2022-10-22T04:10:49;106958.06;;;13.84;68.83
38620;BME280;24376;51.986;4.662;2022-10-22T04:13:14;106956.22;;;13.83;69.04
38620;BME280;24376;51.986;4.662;2022-10-22T04:15:39;106892.03;;;13.82;69.57
38620;BME280;24376;51.986;4.662;2022-10-22T04:18:04;106735.88;;;13.85;70.43
38620;BME280;24376;51.986;4.662;2022-10-22T04:20:30;106608.44;;;13.84;71.29
38620;BME280;24376;51.986;4.662;2022-10-22T04:22:55;106560.41;;;13.87;71.73
38620;BME280;24376;51.986;4.662;2022-10-22T04:25:20;106572.31;;;13.83;71.89
38620;BME280;24376;51.986;4.662;2022-10-22T04:27:45;106611.06;;;13.84;72.00
38620;BME280;24376;51.986;4.662;2022-10-22T04:30:10;106649.53;;;13.91;72.27
38620;BME280;24376;51.986;4.662;2022-10-22T04:32:36;106608.63;;;13.86;73.10
38620;BME280;24376;51.986;4.662;2022-10-22T04:35:01;106541.13;;;13.79;74.15
38620;BME280;24376;51.986;4.662;2022-10-22T04:37:26;106559.56;;;13.79;74.53
38620;BME280;24376;51.986;4.662;2022-10-22T04:39:51;106551.03;;;13.73;75.15
38620;BME280;24376;51.986;4.662;2022-10-22T04:42:17;106543.41;;;13.68;75.83
38620;BME280;24376;51.986;4.662;2022-10-22T04:44:42;106564.50;;;13.68;75.98
38620;BME280;24376;51.986;4.662;2022-10-22T04:47:07;106574.31;;;13.69;76.17
38620;BME280;24376;51.986;4.662;2022-10-22T04:49:32;106613.81;;;13.69;76.06
38620;BME280;24376;51.986;4.662;2022-10-22T04:51:57;106627.00;;;13.69;76.23
38620;BME280;24376;51.986;4.662;2022-10-22T04:54:22;106629.91;;;13.63;76.61
38620;BME280;24376;51.986;4.662;2022-10-22T04:56:48;106630.94;;;13.56;76.85
38620;BME280;24376;51.986;4.662;2022-10-22T04:59:13;106620.22;;;13.46;77.12
38620;BME280;24376;51.986;4.662;2022-10-22T05:01:39;106668.84;;;13.41;76.85
38620;BME280;24376;51.986;4.662;2022-10-22T05:04:05;106813.72;;;13.41;75.19
38620;BME280;24376;51.986;4.662;2022-10-22T05:06:31;106775.41;;;13.36;75.73
38620;BME280;24376;51.986;4.662;2022-10-22T05:08:58;106807.63;;;13.34;75.38
38620;BME280;24376;51.986;4.662;2022-10-22T05:11:25;106814.25;;;13.30;74.97
38620;BME280;24376;51.986;4.662;2022-10-22T05:13:52;106897.41;;;13.28;73.98
38620;BME280;24376;51.986;4.662;2022-10-22T05:16:17;106895.53;;;13.27;73.89
38620;BME280;24376;51.986;4.662;2022-10-22T05:18:43;106924.00;;;13.22;73.41
38620;BME280;24376;51.986;4.662;2022-10-22T05:21:13;106956.53;;;13.23;73.09
38620;BME280;24376;51.986;4.662;2022-10-22T05:23:38;106964.25;;;13.21;72.87
38620;BME280;24376;51.986;4.662;2022-10-22T05:26:04;107046.84;;;13.15;72.22
38620;BME280;24376;51.986;4.662;2022-10-22T05:28:30;107062.47;;;13.13;72.14
38620;BME280;24376;51.986;4.662;2022-10-22T05:30:55;107100.09;;;13.12;71.78
38620;BME280;24376;51.986;4.662;2022-10-22T05:33:21;107151.81;;;13.12;71.33
38620;BME280;24376;51.986;4.662;2022-10-22T05:35:47;107188.66;;;13.19;71.06
38620;BME280;24376;51.986;4.662;2022-10-22T05:38:12;107209.72;;;13.19;70.85
38620;BME280;24376;51.986;4.662;2022-10-22T05:40:37;107246.03;;;13.21;70.62
38620;BME280;24376;51.986;4.662;2022-10-22T05:43:02;107237.19;;;13.21;70.58
38620;BME280;24376;51.986;4.662;2022-10-22T05:45:28;107328.97;;;13.18;70.36
38620;BME280;24376;51.986;4.662;2022-10-22T05:47:53;107298.47;;;13.20;70.34
38620;BME280;24376;51.986;4.662;2022-10-22T05:50:18;107304.16;;;13.23;70.27
38620;BME280;24376;51.986;4.662;2022-10-22T05:52:43;107318.81;;;13.28;70.19
38620;BME280;24376;51.986;4.662;2022-10-22T05:55:08;107322.91;;;13.33;70.13
38620;BME280;24376;51.986;4.662;2022-10-22T05:57:33;107312.75;;;13.36;70.18
38620;BME280;24376;51.986;4.662;2022-10-22T05:59:59;107317.63;;;13.40;70.19
38620;BME280;24376;51.986;4.662;2022-10-22T06:02:24;107190.41;;;13.41;70.89
38620;BME280;24376;51.986;4.662;2022-10-22T06:04:49;107271.84;;;13.47;70.37
38620;BME280;24376;51.986;4.662;2022-10-22T06:07:14;107224.81;;;13.43;70.79
38620;BME280;24376;51.986;4.662;2022-10-22T06:09:39;107178.00;;;13.40;71.05
38620;BME280;24376;51.986;4.662;2022-10-22T06:12:05;107243.03;;;13.48;70.78
38620;BME280;24376;51.986;4.662;2022-10-22T06:14:34;107207.25;;;13.50;71.06
38620;BME280;24376;51.986;4.662;2022-10-22T06:16:59;107086.75;;;13.56;71.77
38620;BME280;24376;51.986;4.662;2022-10-22T06:19:25;106965.91;;;13.60;72.69
38620;BME280;24376;51.986;4.662;2022-10-22T06:21:51;106994.66;;;13.65;72.50
38620;BME280;24376;51.986;4.662;2022-10-22T06:24:16;107027.38;;;13.67;72.59
38620;BME280;24376;51.986;4.662;2022-10-22T06:26:41;106993.06;;;13.74;73.16
38620;BME280;24376;51.986;4.662;2022-10-22T06:29:07;106910.72;;;13.77;74.47
38620;BME280;24376;51.986;4.662;2022-10-22T06:31:32;106892.63;;;13.80;75.21
38620;BME280;24376;51.986;4.662;2022-10-22T06:34:04;106856.97;;;13.83;76.11
38620;BME280;24376;51.986;4.662;2022-10-22T06:36:29;106795.78;;;13.86;77.92
38620;BME280;24376;51.986;4.662;2022-10-22T06:38:55;106709.53;;;13.85;80.93
38620;BME280;24376;51.986;4.662;2022-10-22T06:41:20;107880.78;;;13.84;68.15
38620;BME280;24376;51.986;4.662;2022-10-22T06:43:45;107753.28;;;13.83;68.69
38620;BME280;24376;51.986;4.662;2022-10-22T06:46:11;107647.63;;;13.89;69.31
38620;BME280;24376;51.986;4.662;2022-10-22T06:48:37;107543.09;;;13.90;69.99
38620;BME280;24376;51.986;4.662;2022-10-22T06:51:04;107477.75;;;13.94;70.60
38620;BME280;24376;51.986;4.662;2022-10-22T06:53:30;107378.66;;;13.96;71.45
38620;BME280;24376;51.986;4.662;2022-10-22T06:55:55;107299.50;;;14.03;72.30
38620;BME280;24376;51.986;4.662;2022-10-22T06:58:20;107194.59;;;14.01;73.71
38620;BME280;24376;51.986;4.662;2022-10-22T07:00:45;107162.88;;;14.08;74.93
38620;BME280;24376;51.986;4.662;2022-10-22T07:03:11;107089.72;;;14.14;76.47
38620;BME280;24376;51.986;4.662;2022-10-22T07:05:37;107004.91;;;14.18;79.05
38620;BME280;24376;51.986;4.662;2022-10-22T07:08:03;106949.91;;;14.30;81.43
38620;BME280;24376;51.986;4.662;2022-10-22T07:10:28;107802.78;;;14.36;69.83
38620;BME280;24376;51.986;4.662;2022-10-22T07:12:53;107736.25;;;14.46;70.25
38620;BME280;24376;51.986;4.662;2022-10-22T07:15:18;107690.81;;;14.55;70.50
38620;BME280;24376;51.986;4.662;2022-10-22T07:17:43;107610.44;;;14.60;71.03
38620;BME280;24376;51.986;4.662;2022-10-22T07:20:09;107546.66;;;14.72;71.65
38620;BME280;24376;51.986;4.662;2022-10-22T07:22:34;107470.38;;;14.82;72.47
38620;BME280;24376;51.986;4.662;2022-10-22T07:24:59;107458.25;;;14.91;72.92
38620;BME280;24376;51.986;4.662;2022-10-22T07:27:24;107383.53;;;14.92;74.16
38620;BME280;24376;51.986;4.662;2022-10-22T07:29:50;107314.88;;;14.92;75.65
38620;BME280;24376;51.986;4.662;2022-10-22T07:32:15;107229.22;;;14.90;77.83
38620;BME280;24376;51.986;4.662;2022-10-22T07:34:40;107124.06;;;14.86;81.63
38620;BME280;24376;51.986;4.662;2022-10-22T07:37:05;107039.13;;;14.90;86.89
38620;BME280;24376;51.986;4.662;2022-10-22T07:39:30;106936.47;;;14.93;96.19
38620;BME280;24376;51.986;4.662;2022-10-22T07:41:55;106908.69;;;14.97;100.00
38620;BME280;24376;51.986;4.662;2022-10-22T07:44:21;106853.41;;;15.07;100.00
38620;BME280;24376;51.986;4.662;2022-10-22T07:46:46;106767.16;;;15.07;100.00
38620;BME280;24376;51.986;4.662;2022-10-22T07:49:11;106555.75;;;15.14;100.00
38620;BME280;24376;51.986;4.662;2022-10-22T07:51:36;106578.06;;;15.18;100.00
38620;BME280;24376;51.986;4.662;2022-10-22T07:54:01;106576.38;;;15.18;100.00
38620;BME280;24376;51.986;4.662;2022-10-22T07:56:27;106566.13;;;15.13;100.00
38620;BME280;24376;51.986;4.662;2022-10-22T07:58:52;106552.59;;;15.18;100.00
38620;BME280;24376;51.986;4.662;2022-10-22T08:01:17;106548.69;;;15.24;100.00
38620;BME280;24376;51.986;4.662;2022-10-22T08:03:43;106490.09;;;15.28;100.00
38620;BME280;24376;51.986;4.662;2022-10-22T08:06:08;106487.38;;;15.45;100.00
38620;BME280;24376;51.986;4.662;2022-10-22T08:08:33;106416.59;;;15.51;100.00
38620;BME280;24376;51.986;4.662;2022-10-22T08:10:59;106380.41;;;15.50;100.00
38620;BME280;24376;51.986;4.662;2022-10-22T08:13:25;106330.97;;;15.49;100.00
38620;BME280;24376;51.986;4.662;2022-10-22T08:15:51;106274.19;;;15.54;100.00
38620;BME280;24376;51.986;4.662;2022-10-22T08:18:16;106257.34;;;15.62;100.00
38620;BME280;24376;51.986;4.662;2022-10-22T08:20:41;106246.03;;;15.74;100.00
38620;BME280;24376;51.986;4.662;2022-10-22T08:23:06;106200.69;;;15.69;100.00
38620;BME280;24376;51.986;4.662;2022-10-22T08:25:32;106088.88;;;15.70;100.00
38620;BME280;24376;51.986;4.662;2022-10-22T08:27:57;106107.81;;;15.85;100.00
38620;BME280;24376;51.986;4.662;2022-10-22T08:30:22;106103.34;;;15.84;100.00
38620;BME280;24376;51.986;4.662;2022-10-22T08:32:47;106042.25;;;15.91;100.00
38620;BME280;24376;51.986;4.662;2022-10-22T08:35:13;106013.81;;;15.99;100.00
38620;BME280;24376;51.986;4.662;2022-10-22T08:37:38;105979.03;;;15.94;100.00
38620;BME280;24376;51.986;4.662;2022-10-22T08:40:04;106071.88;;;16.07;100.00
38620;BME280;24376;51.986;4.662;2022-10-22T08:42:49;105989.75;;;16.06;100.00
38620;BME280;24376;51.986;4.662;2022-10-22T08:45:28;105953.63;;;16.16;100.00
38620;BME280;24376;51.986;4.662;2022-10-22T08:48:01;105873.47;;;16.17;100.00
38620;BME280;24376;51.986;4.662;2022-10-22T08:50:40;105856.41;;;16.24;100.00
38620;BME280;24376;51.986;4.662;2022-10-22T08:53:10;105865.91;;;16.32;100.00
38620;BME280;24376;51.986;4.662;2022-10-22T08:55:36;105851.94;;;16.45;100.00
38620;BME280;24376;51.986;4.662;2022-10-22T09:03:09;105814.44;;;16.29;100.00
38620;BME280;24376;51.986;4.662;2022-10-22T09:08:01;105816.00;;;16.37;100.00
38620;BME280;24376;51.986;4.662;2022-10-22T09:10:28;105828.16;;;16.35;100.00
38620;BME280;24376;51.986;4.662;2022-10-22T09:12:56;105805.47;;;16.27;100.00
38620;BME280;24376;51.986;4.662;2022-10-22T09:15:21;105776.75;;;16.31;100.00
38620;BME280;24376;51.986;4.662;2022-10-22T09:20:30;105765.97;;;16.18;100.00
38620;BME280;24376;51.986;4.662;2022-10-22T09:25:41;105844.16;;;16.14;100.00
38620;BME280;24376;51.986;4.662;2022-10-22T09:28:08;105879.44;;;16.25;100.00
38620;BME280;24376;51.986;4.662;2022-10-22T09:30:34;105902.78;;;16.41;100.00
38620;BME280;24376;51.986;4.662;2022-10-22T09:35:47;105844.44;;;16.71;100.00
38620;BME280;24376;51.986;4.662;2022-10-22T09:38:15;105775.72;;;16.73;100.00
38620;BME280;24376;51.986;4.662;2022-10-22T09:40:44;105738.03;;;16.65;100.00
38620;BME280;24376;51.986;4.662;2022-10-22T09:43:12;105727.06;;;16.83;100.00
38620;BME280;24376;51.986;4.662;2022-10-22T09:45:37;105690.13;;;16.84;100.00
38620;BME280;24376;51.986;4.662;2022-10-22T09:50:40;105662.16;;;16.88;100.00
38620;BME280;24376;51.986;4.662;2022-10-22T09:55:41;105621.84;;;16.92;100.00
38620;BME280;24376;51.986;4.662;2022-10-22T09:58:09;105552.53;;;16.97;100.00
38620;BME280;24376;51.986;4.662;2022-10-22T10:00:34;105535.97;;;17.00;100.00
38620;BME280;24376;51.986;4.662;2022-10-22T10:03:02;105509.00;;;17.17;100.00
38620;BME280;24376;51.986;4.662;2022-10-22T10:05:31;105416.44;;;17.07;100.00
38620;BME280;24376;51.986;4.662;2022-10-22T10:07:56;105377.94;;;17.12;100.00
38620;BME280;24376;51.986;4.662;2022-10-22T10:10:41;105329.59;;;17.03;100.00
38620;BME280;24376;51.986;4.662;2022-10-22T10:15:39;105385.59;;;16.96;100.00
38620;BME280;24376;51.986;4.662;2022-10-22T10:23:07;105433.00;;;17.16;100.00
38620;BME280;24376;51.986;4.662;2022-10-22T10:28:18;105414.75;;;17.21;100.00
38620;BME280;24376;51.986;4.662;2022-10-22T10:38:11;105183.19;;;17.70;100.00
38620;BME280;24376;51.986;4.662;2022-10-22T10:43:09;105003.44;;;17.78;100.00
38620;BME280;24376;51.986;4.662;2022-10-22T10:45:41;104912.56;;;17.80;100.00
38620;BME280;24376;51.986;4.662;2022-10-22T10:48:14;104862.63;;;17.73;100.00
38620;BME280;24376;51.986;4.662;2022-10-22T11:01:14;104734.09;;;18.44;100.00
38620;BME280;24376;51.986;4.662;2022-10-22T11:06:15;104533.72;;;18.68;100.00
38620;BME280;24376;51.986;4.662;2022-10-22T11:08:42;104431.47;;;18.76;100.00
38620;BME280;24376;51.986;4.662;2022-10-22T11:11:17;104304.81;;;18.74;100.00
38620;BME280;24376;51.986;4.662;2022-10-22T11:13:45;104138.56;;;18.58;100.00
38620;BME280;24376;51.986;4.662;2022-10-22T11:18:42;103936.84;;;17.77;100.00
38620;BME280;24376;51.986;4.662;2022-10-22T11:21:10;103882.56;;;17.89;100.00
38620;BME280;24376;51.986;4.662;2022-10-22T11:23:41;103738.75;;;17.94;100.00
38620;BME280;24376;51.986;4.662;2022-10-22T11:26:09;103700.25;;;17.81;100.00
38620;BME280;24376;51.986;4.662;2022-10-22T11:28:40;103609.34;;;17.63;100.00
38620;BME280;24376;51.986;4.662;2022-10-22T11:31:08;103592.72;;;17.67;100.00
38620;BME280;24376;51.986;4.662;2022-10-22T11:33:59;103594.88;;;17.76;100.00
38620;BME280;24376;51.986;4.662;2022-10-22T11:36:25;103647.22;;;17.81;100.00
38620;BME280;24376;51.986;4.662;2022-10-22T11:38:51;103736.06;;;17.93;100.00
38620;BME280;24376;51.986;4.662;2022-10-22T11:41:17;103879.13;;;18.31;100.00
38620;BME280;24376;51.986;4.662;2022-10-22T11:46:43;103760.09;;;18.18;100.00
38620;BME280;24376;51.986;4.662;2022-10-22T11:51:37;103751.72;;;18.73;100.00
38620;BME280;24376;51.986;4.662;2022-10-22T11:56:47;103632.88;;;18.90;100.00
38620;BME280;24376;51.986;4.662;2022-10-22T11:59:31;103524.78;;;19.13;100.00
38620;BME280;24376;51.986;4.662;2022-10-22T12:01:57;103307.06;;;19.14;100.00
38620;BME280;24376;51.986;4.662;2022-10-22T12:04:23;103206.06;;;19.13;100.00
38620;BME280;24376;51.986;4.662;2022-10-22T12:07:03;103128.88;;;19.38;100.00
38620;BME280;24376;51.986;4.662;2022-10-22T12:09:48;102936.50;;;19.66;100.00
38620;BME280;24376;51.986;4.662;2022-10-22T12:12:18;102791.31;;;19.73;100.00
38620;BME280;24376;51.986;4.662;2022-10-22T12:14:51;102619.47;;;19.77;100.00
38620;BME280;24376;51.986;4.662;2022-10-22T12:17:17;102548.50;;;19.71;100.00
38620;BME280;24376;51.986;4.662;2022-10-22T12:19:44;102490.25;;;19.83;100.00
38620;BME280;24376;51.986;4.662;2022-10-22T12:24:37;102423.09;;;19.37;100.00
38620;BME280;24376;51.986;4.662;2022-10-22T12:27:13;102460.91;;;19.21;100.00
38620;BME280;24376;51.986;4.662;2022-10-22T12:29:39;102583.47;;;19.43;100.00
38620;BME280;24376;51.986;4.662;2022-10-22T12:32:04;102638.50;;;19.50;100.00
38620;BME280;24376;51.986;4.662;2022-10-22T12:34:29;102634.44;;;19.23;100.00
38620;BME280;24376;51.986;4.662;2022-10-22T12:36:55;102732.84;;;18.87;100.00
38620;BME280;24376;51.986;4.662;2022-10-22T12:39:21;102914.25;;;18.89;100.00
38620;BME280;24376;51.986;4.662;2022-10-22T12:41:46;103035.31;;;18.82;100.00
38620;BME280;24376;51.986;4.662;2022-10-22T12:44:13;103168.03;;;18.82;100.00
38620;BME280;24376;51.986;4.662;2022-10-22T12:46:39;103288.16;;;19.04;100.00
38620;BME280;24376;51.986;4.662;2022-10-22T12:49:16;103338.97;;;18.87;100.00
38620;BME280;24376;51.986;4.662;2022-10-22T12:51:42;103340.19;;;18.70;100.00
38620;BME280;24376;51.986;4.662;2022-10-22T12:54:09;103284.22;;;18.64;100.00
38620;BME280;24376;51.986;4.662;2022-10-22T12:56:38;103270.22;;;18.41;100.00
38620;BME280;24376;51.986;4.662;2022-10-22T12:59:08;103253.59;;;18.47;100.00
38620;BME280;24376;51.986;4.662;2022-10-22T13:01:38;103299.56;;;18.46;100.00
38620;BME280;24376;51.986;4.662;2022-10-22T13:06:29;103408.22;;;18.43;100.00
38620;BME280;24376;51.986;4.662;2022-10-22T13:11:22;103410.78;;;18.40;100.00
38620;BME280;24376;51.986;4.662;2022-10-22T13:13:47;103392.47;;;18.47;100.00
38620;BME280;24376;51.986;4.662;2022-10-22T13:16:14;103322.47;;;18.44;100.00
38620;BME280;24376;51.986;4.662;2022-10-22T13:18:39;103148.53;;;18.52;100.00
38620;BME280;24376;51.986;4.662;2022-10-22T13:23:57;102953.69;;;18.42;100.00
38620;BME280;24376;51.986;4.662;2022-10-22T13:26:30;102954.13;;;18.57;100.00
38620;BME280;24376;51.986;4.662;2022-10-22T13:28:56;102873.50;;;18.85;100.00
38620;BME280;24376;51.986;4.662;2022-10-22T13:31:31;102801.38;;;19.05;100.00
38620;BME280;24376;51.986;4.662;2022-10-22T13:34:01;102730.56;;;19.05;100.00
38620;BME280;24376;51.986;4.662;2022-10-22T13:36:28;102630.03;;;19.24;100.00
38620;BME280;24376;51.986;4.662;2022-10-22T13:38:54;102454.91;;;18.81;100.00
38620;BME280;24376;51.986;4.662;2022-10-22T13:41:23;102395.19;;;18.56;100.00
38620;BME280;24376;51.986;4.662;2022-10-22T13:43:51;102376.09;;;18.76;100.00
38620;BME280;24376;51.986;4.662;2022-10-22T13:46:17;102383.97;;;18.71;100.00
38620;BME280;24376;51.986;4.662;2022-10-22T13:48:43;102380.28;;;18.66;100.00
38620;BME280;24376;51.986;4.662;2022-10-22T13:51:16;102367.44;;;18.89;100.00
38620;BME280;24376;51.986;4.662;2022-10-22T13:53:41;102359.66;;;19.00;100.00
38620;BME280;24376;51.986;4.662;2022-10-22T13:56:18;102331.97;;;18.84;100.00
38620;BME280;24376;51.986;4.662;2022-10-22T13:58:44;102277.69;;;18.65;100.00
38620;BME280;24376;51.986;4.662;2022-10-22T14:01:15;102344.13;;;18.68;100.00
38620;BME280;24376;51.986;4.662;2022-10-22T14:03:42;102454.53;;;18.61;100.00
38620;BME280;24376;51.986;4.662;2022-10-22T14:06:11;102441.03;;;18.98;100.00
38620;BME280;24376;51.986;4.662;2022-10-22T14:08:37;102357.19;;;19.10;100.00
38620;BME280;24376;51.986;4.662;2022-10-22T14:11:02;102291.28;;;19.47;100.00
38620;BME280;24376;51.986;4.662;2022-10-22T14:13:28;102244.97;;;19.25;100.00
38620;BME280;24376;51.986;4.662;2022-10-22T14:15:53;102228.44;;;18.79;100.00
38620;BME280;24376;51.986;4.662;2022-10-22T14:18:19;102251.34;;;18.74;100.00